createdAt,value
2023-03-17T00:04:32.026Z,1.62
2023-03-17T00:09:56.220Z,1.62
2023-03-17T00:15:24.232Z,1.64
2023-03-17T00:20:48.797Z,1.57
2023-03-17T00:26:13.474Z,2.54
2023-03-17T00:31:40.630Z,5.50
2023-03-17T00:37:04.940Z,6.96
2023-03-17T00:42:29.802Z,7.79
2023-03-17T00:47:56.420Z,8.26
2023-03-17T00:53:24.605Z,8.48
2023-03-17T00:58:49.880Z,8.70
2023-03-17T01:04:14.620Z,8.24
2023-03-17T01:09:38.513Z,6.32
2023-03-17T01:15:03.035Z,4.92
2023-03-17T01:20:31.962Z,3.95
2023-03-17T01:25:56.749Z,3.24
2023-03-17T01:31:23.569Z,2.72
2023-03-17T01:36:48.922Z,2.32
2023-03-17T01:42:13.956Z,2.03
2023-03-17T01:47:38.334Z,1.80
2023-03-17T01:53:02.188Z,1.58
2023-03-17T01:58:27.082Z,1.43
2023-03-17T02:03:52.586Z,1.34
2023-03-17T02:09:17.832Z,1.25
2023-03-17T02:14:42.237Z,1.15
2023-03-17T02:20:18.771Z,1.02
2023-03-17T02:25:47.794Z,0.95
2023-03-17T02:31:12.987Z,0.92
2023-03-17T02:36:37.817Z,0.88
2023-03-17T02:42:04.089Z,0.81
2023-03-17T02:47:27.993Z,0.74
2023-03-17T02:52:52.623Z,0.64
2023-03-17T02:58:16.921Z,0.58
2023-03-17T03:03:41.077Z,0.55
2023-03-17T03:09:06.151Z,0.51
2023-03-17T03:14:30.981Z,0.51
2023-03-17T03:19:55.037Z,1.47
2023-03-17T03:25:19.106Z,4.41
2023-03-17T03:30:44.848Z,6.05
2023-03-17T03:36:09.311Z,6.95
2023-03-17T03:41:33.950Z,7.53
2023-03-17T03:46:59.277Z,7.90
2023-03-17T03:52:23.819Z,7.50
2023-03-17T03:57:48.244Z,5.45
2023-03-17T04:03:13.247Z,3.94
2023-03-17T04:08:37.989Z,2.92
2023-03-17T04:14:02.547Z,2.19
2023-03-17T04:19:27.890Z,1.65
2023-03-17T04:24:52.497Z,1.22
2023-03-17T04:30:17.235Z,0.89
2023-03-17T04:35:41.814Z,0.69
2023-03-17T04:41:06.649Z,0.54
2023-03-17T04:46:31.355Z,0.46
2023-03-17T04:51:56.125Z,0.36
2023-03-17T04:57:20.422Z,0.27
2023-03-17T05:02:45.222Z,0.23
2023-03-17T05:08:09.191Z,0.19
2023-03-17T05:13:33.604Z,0.17
2023-03-17T05:18:58.809Z,0.16
2023-03-17T05:24:24.174Z,0.16
2023-03-17T05:29:49.133Z,0.18
2023-03-17T05:35:13.952Z,1.23
2023-03-17T05:40:38.465Z,4.39
2023-03-17T05:46:03.038Z,6.35
2023-03-17T05:51:28.275Z,7.55
2023-03-17T05:56:53.665Z,8.15
2023-03-17T06:02:18.574Z,8.53
2023-03-17T06:07:52.912Z,8.10
2023-03-17T06:13:19.463Z,6.20
2023-03-17T06:19:58.055Z,4.95
2023-03-17T06:25:23.455Z,3.72
2023-03-17T06:30:48.143Z,3.17
2023-03-17T06:36:12.929Z,2.84
2023-03-17T06:41:36.944Z,2.70
2023-03-17T06:47:01.149Z,2.65
2023-03-17T06:52:25.773Z,2.68
2023-03-17T06:57:51.553Z,2.75
2023-03-17T07:03:17.259Z,2.88
2023-03-17T07:08:41.830Z,3.07
2023-03-17T07:14:06.700Z,3.30
2023-03-17T07:19:31.609Z,3.53
2023-03-17T07:24:56.188Z,3.76
2023-03-17T07:30:21.132Z,4.02
2023-03-17T07:35:46.158Z,4.32
2023-03-17T07:41:11.300Z,4.64
2023-03-17T07:46:35.617Z,4.99
2023-03-17T07:51:59.824Z,5.39
2023-03-17T07:57:25.040Z,5.74
2023-03-17T08:03:06.981Z,6.03
2023-03-17T08:08:34.413Z,6.29
2023-03-17T08:13:58.787Z,6.52
2023-03-17T08:19:24.574Z,6.74
2023-03-17T08:24:49.228Z,6.96
2023-03-17T08:30:13.869Z,7.13
2023-03-17T08:35:42.336Z,7.27
2023-03-17T08:41:10.071Z,7.40
2023-03-17T08:46:35.436Z,7.59
2023-03-17T08:52:00.407Z,7.81
2023-03-17T08:57:25.089Z,8.04
2023-03-17T09:02:49.327Z,8.30
2023-03-17T09:08:13.672Z,8.46
2023-03-17T09:13:39.606Z,8.69
2023-03-17T09:19:04.663Z,8.98
2023-03-17T09:24:29.196Z,9.30
2023-03-17T09:29:53.111Z,9.61
2023-03-17T09:35:17.807Z,9.85
2023-03-17T09:40:49.955Z,10.00
2023-03-17T09:46:27.314Z,10.11
2023-03-17T09:51:52.543Z,10.13
2023-03-17T09:57:32.740Z,10.20
2023-03-17T10:02:58.375Z,10.48
2023-03-17T10:08:32.585Z,10.80
2023-03-17T10:14:52.983Z,11.14
2023-03-17T10:20:25.936Z,11.39
2023-03-17T10:25:50.406Z,11.44
2023-03-17T10:31:29.150Z,11.41
2023-03-17T10:37:07.019Z,11.38
2023-03-17T10:42:36.030Z,11.41
2023-03-17T10:48:04.770Z,11.51
2023-03-17T10:53:38.855Z,11.63
2023-03-17T11:05:04.784Z,11.94
2023-03-17T11:10:30.500Z,12.19
2023-03-17T11:16:07.793Z,12.42
2023-03-17T11:21:55.243Z,12.64
2023-03-17T11:27:36.132Z,12.83
2023-03-17T11:33:28.384Z,12.99
2023-03-17T11:39:06.112Z,13.10
2023-03-17T11:45:06.924Z,13.18
2023-03-17T11:50:39.656Z,13.38
2023-03-17T11:56:14.284Z,13.51
2023-03-17T12:01:51.518Z,13.64
2023-03-17T12:07:23.830Z,13.76
2023-03-17T12:12:56.896Z,13.88
2023-03-17T12:18:33.106Z,13.89
2023-03-17T12:24:27.224Z,13.95
2023-03-17T12:30:17.999Z,14.00
2023-03-17T12:35:43.569Z,14.20
2023-03-17T12:41:21.231Z,14.28
2023-03-17T12:47:06.553Z,14.27
2023-03-17T12:52:37.949Z,14.27
2023-03-17T12:58:20.454Z,14.28
2023-03-17T13:04:06.074Z,14.29
2023-03-17T13:09:43.579Z,14.40
2023-03-17T13:15:31.168Z,14.64
2023-03-17T13:21:01.357Z,14.73
2023-03-17T13:27:04.750Z,14.87
2023-03-17T13:32:34.050Z,14.84
2023-03-17T13:38:14.224Z,14.97
2023-03-17T13:43:45.159Z,15.13
2023-03-17T13:49:30.276Z,15.20
2023-03-17T13:55:24.210Z,14.93
2023-03-17T14:00:56.096Z,14.75
2023-03-17T14:06:28.381Z,14.53
2023-03-17T14:11:53.857Z,14.32
2023-03-17T14:17:30.595Z,14.26
2023-03-17T14:22:59.361Z,14.26
2023-03-17T14:28:29.231Z,14.30
2023-03-17T14:33:57.277Z,14.12
2023-03-17T14:39:26.643Z,14.14
2023-03-17T14:45:01.941Z,14.26
2023-03-17T14:50:31.632Z,14.40
2023-03-17T14:55:56.867Z,14.59
2023-03-17T15:01:35.525Z,14.74
2023-03-17T15:07:03.317Z,14.66
2023-03-17T15:12:29.380Z,14.65
2023-03-17T15:17:57.795Z,14.60
2023-03-17T15:23:41.506Z,14.60
2023-03-17T15:29:06.238Z,14.60
2023-03-17T15:34:30.979Z,14.31
2023-03-17T15:39:56.758Z,14.05
2023-03-17T15:45:22.724Z,13.84
2023-03-17T15:50:49.647Z,13.68
2023-03-17T15:56:20.802Z,13.54
2023-03-17T16:01:45.670Z,13.42
2023-03-17T16:07:13.471Z,13.24
2023-03-17T16:12:37.537Z,13.03
2023-03-17T16:18:05.001Z,12.86
2023-03-17T16:23:34.413Z,12.74
2023-03-17T16:29:00.942Z,12.72
2023-03-17T16:34:26.217Z,12.58
2023-03-17T16:39:52.739Z,12.40
2023-03-17T16:45:22.444Z,12.27
2023-03-17T16:50:46.608Z,12.11
2023-03-17T16:56:15.825Z,11.96
2023-03-17T17:01:41.269Z,11.72
2023-03-17T17:07:06.108Z,11.45
2023-03-17T17:12:30.825Z,11.16
2023-03-17T17:17:58.820Z,10.92
2023-03-17T17:23:26.692Z,10.82
2023-03-17T17:28:51.735Z,10.67
2023-03-17T17:34:16.827Z,10.57
2023-03-17T17:39:41.089Z,10.43
2023-03-17T17:45:05.342Z,10.27
2023-03-17T17:50:30.750Z,10.14
2023-03-17T17:55:55.938Z,10.00
2023-03-17T18:01:23.128Z,9.88
2023-03-17T18:06:48.068Z,9.78
2023-03-17T18:12:12.209Z,9.66
2023-03-17T18:17:36.684Z,9.53
2023-03-17T18:23:01.361Z,9.40
2023-03-17T18:28:25.487Z,9.26
2023-03-17T18:33:52.346Z,9.11
2023-03-17T18:39:17.463Z,8.96
2023-03-17T18:44:42.052Z,8.81
2023-03-17T18:50:09.583Z,8.62
2023-03-17T18:55:33.861Z,8.35
2023-03-17T19:00:59.960Z,8.19
2023-03-17T19:06:24.811Z,8.06
2023-03-17T19:11:49.713Z,7.97
2023-03-17T19:17:14.117Z,7.84
2023-03-17T19:22:38.367Z,7.69
2023-03-17T19:28:03.743Z,7.59
2023-03-17T19:33:29.196Z,7.49
2023-03-17T19:38:53.394Z,7.36
2023-03-17T19:44:18.175Z,7.25
2023-03-17T19:49:42.568Z,7.16
2023-03-17T19:55:08.486Z,7.07
2023-03-17T20:00:34.496Z,6.96
2023-03-17T20:05:58.589Z,6.85
2023-03-17T20:11:24.358Z,6.69
2023-03-17T20:16:50.947Z,6.54
2023-03-17T20:22:14.966Z,6.40
2023-03-17T20:27:40.488Z,6.27
2023-03-17T20:33:07.013Z,6.12
2023-03-17T20:38:33.591Z,5.93
2023-03-17T20:43:58.378Z,5.80
2023-03-17T20:49:23.947Z,5.71
2023-03-17T20:54:48.852Z,5.62
2023-03-17T21:00:18.117Z,5.53
2023-03-17T21:05:42.688Z,5.41
2023-03-17T21:11:08.431Z,5.29
2023-03-17T21:16:33.233Z,5.18
2023-03-17T21:21:58.995Z,5.07
2023-03-17T21:27:23.390Z,4.96
2023-03-17T21:32:47.638Z,4.88
2023-03-17T21:38:12.063Z,4.77
2023-03-17T21:43:36.197Z,4.59
2023-03-17T21:49:01.939Z,4.47
2023-03-17T21:54:27.402Z,4.38
2023-03-17T21:59:51.320Z,4.31
2023-03-17T22:05:15.181Z,4.21
2023-03-17T22:10:40.763Z,4.09
2023-03-17T22:16:05.357Z,4.03
2023-03-17T22:21:32.260Z,3.98
2023-03-17T22:26:56.978Z,3.91
2023-03-17T22:32:20.981Z,3.77
2023-03-17T22:37:45.290Z,3.64
2023-03-17T22:43:09.471Z,3.58
2023-03-17T22:48:36.178Z,3.49
2023-03-17T22:54:00.572Z,4.54
2023-03-17T22:59:25.311Z,7.51
2023-03-17T23:04:50.410Z,9.05
2023-03-17T23:10:16.314Z,9.85
2023-03-17T23:15:40.777Z,10.36
2023-03-17T23:21:07.074Z,10.74
2023-03-17T23:26:33.290Z,10.12
2023-03-17T23:31:58.088Z,7.91
2023-03-17T23:37:22.564Z,6.35
2023-03-17T23:42:49.299Z,5.29
2023-03-17T23:48:13.415Z,4.54
2023-03-17T23:53:39.807Z,4.05
2023-03-17T23:59:04.854Z,3.71
